createdAt,value
2019-01-17T00:00:46.023Z,78.46
2019-01-17T00:03:36.911Z,78.31
2019-01-17T00:06:31.701Z,78.09
2019-01-17T00:09:14.985Z,78.12
2019-01-17T00:12:04.734Z,78.45
2019-01-17T00:14:52.807Z,78.39
2019-01-17T00:17:42.961Z,78.35
2019-01-17T00:20:26.724Z,78.03
2019-01-17T00:23:20.240Z,77.73
2019-01-17T00:26:06.458Z,77.73
2019-01-17T00:28:59.364Z,77.16
2019-01-17T00:32:03.533Z,77.39
2019-01-17T00:34:54.410Z,77.94
2019-01-17T00:37:45.130Z,77.81
2019-01-17T00:40:37.030Z,78.23
2019-01-17T00:43:31.071Z,77.96
2019-01-17T00:46:31.701Z,78.56
2019-01-17T00:49:32.861Z,78.23
2019-01-17T00:52:23.420Z,77.58
2019-01-17T00:55:15.186Z,77.37
2019-01-17T00:57:58.899Z,77.56
2019-01-17T01:00:49.072Z,77.51
2019-01-17T01:03:44.175Z,78.01
2019-01-17T01:06:41.584Z,78.05
2019-01-17T01:09:33.134Z,77.63
2019-01-17T01:12:30.003Z,77.37
2019-01-17T01:15:26.149Z,77.31
2019-01-17T01:18:13.035Z,76.86
2019-01-17T01:21:05.727Z,76.97
2019-01-17T01:23:57.328Z,77.60
2019-01-17T01:27:08.505Z,77.87
2019-01-17T01:30:08.282Z,78.08
2019-01-17T01:32:58.590Z,77.36
2019-01-17T01:35:56.128Z,77.86
2019-01-17T01:38:47.452Z,77.94
2019-01-17T01:41:49.210Z,78.21
2019-01-17T01:44:52.616Z,77.95
2019-01-17T01:47:47.247Z,77.10
2019-01-17T01:50:37.604Z,77.78
2019-01-17T01:53:10.358Z,78.42
2019-01-17T01:55:43.053Z,78.42
2019-01-17T01:58:15.800Z,78.47
2019-01-17T02:00:48.599Z,78.11
2019-01-17T02:03:21.281Z,77.99
2019-01-17T02:05:54.069Z,78.08
2019-01-17T02:08:26.798Z,78.22
2019-01-17T02:11:00.126Z,78.35
2019-01-17T02:13:32.989Z,78.53
2019-01-17T02:16:05.721Z,78.21
2019-01-17T02:18:38.525Z,78.00
2019-01-17T02:21:11.259Z,78.33
2019-01-17T02:23:43.948Z,77.96
2019-01-17T02:26:16.695Z,78.25
2019-01-17T02:28:49.419Z,78.07
2019-01-17T02:31:22.190Z,77.61
2019-01-17T02:33:55.047Z,78.03
2019-01-17T02:36:27.812Z,78.43
2019-01-17T02:39:00.564Z,77.92
2019-01-17T02:41:35.617Z,77.61
2019-01-17T02:44:08.493Z,77.67
2019-01-17T02:46:41.240Z,77.59
2019-01-17T02:49:13.985Z,77.86
2019-01-17T02:51:46.683Z,77.71
2019-01-17T02:54:19.377Z,77.91
2019-01-17T02:56:52.637Z,77.47
2019-01-17T02:59:25.393Z,77.49
2019-01-17T03:01:58.530Z,77.87
2019-01-17T03:04:31.217Z,79.21
2019-01-17T03:07:04.005Z,77.74
2019-01-17T03:09:36.841Z,77.69
2019-01-17T03:12:09.568Z,77.63
2019-01-17T03:14:42.288Z,77.55
2019-01-17T03:17:15.160Z,77.59
2019-01-17T03:19:48.063Z,77.47
2019-01-17T03:22:20.792Z,77.05
2019-01-17T03:24:55.532Z,76.85
2019-01-17T03:27:28.211Z,76.57
2019-01-17T03:30:00.972Z,76.25
2019-01-17T03:32:33.790Z,76.67
2019-01-17T03:35:06.992Z,77.28
2019-01-17T03:37:39.761Z,77.11
2019-01-17T03:40:16.317Z,76.89
2019-01-17T03:42:49.111Z,76.40
2019-01-17T03:45:21.871Z,76.33
2019-01-17T03:47:54.663Z,76.35
2019-01-17T03:50:27.338Z,76.23
2019-01-17T03:53:00.116Z,75.65
2019-01-17T03:55:33.231Z,76.09
2019-01-17T03:58:06.010Z,75.74
2019-01-17T04:00:38.937Z,76.32
2019-01-17T04:03:11.772Z,76.25
2019-01-17T04:05:44.452Z,76.43
2019-01-17T04:08:17.181Z,76.25
2019-01-17T04:10:49.952Z,75.87
2019-01-17T04:13:22.734Z,75.72
2019-01-17T04:15:55.427Z,75.75
2019-01-17T04:18:28.239Z,75.80
2019-01-17T04:21:01.001Z,76.30
2019-01-17T04:23:33.905Z,76.12
2019-01-17T04:26:06.694Z,76.28
2019-01-17T04:28:39.500Z,76.27
2019-01-17T04:31:12.242Z,76.30
2019-01-17T04:33:45.003Z,76.40
2019-01-17T04:36:17.819Z,76.27
2019-01-17T04:38:50.574Z,76.71
2019-01-17T04:41:23.301Z,76.39
2019-01-17T04:43:56.119Z,76.61
2019-01-17T04:46:29.012Z,77.03
2019-01-17T04:49:01.927Z,76.51
2019-01-17T04:51:34.649Z,77.42
2019-01-17T04:54:07.438Z,77.23
2019-01-17T04:56:40.166Z,76.31
2019-01-17T04:59:12.861Z,75.78
2019-01-17T05:01:45.552Z,75.75
2019-01-17T05:04:18.584Z,76.03
2019-01-17T05:06:51.400Z,75.46
2019-01-17T05:09:24.150Z,76.04
2019-01-17T05:11:56.968Z,75.90
2019-01-17T05:14:30.793Z,75.55
2019-01-17T05:17:03.630Z,75.15
2019-01-17T05:19:38.453Z,75.06
2019-01-17T05:22:11.190Z,74.36
2019-01-17T05:24:43.921Z,73.85
2019-01-17T05:27:17.193Z,73.53
2019-01-17T05:29:49.958Z,73.17
2019-01-17T05:32:22.686Z,72.37
2019-01-17T05:34:55.388Z,73.09
2019-01-17T05:37:28.078Z,72.59
2019-01-17T05:40:00.789Z,72.64
2019-01-17T05:42:33.539Z,72.41
2019-01-17T05:45:06.793Z,72.00
2019-01-17T05:47:39.503Z,71.84
2019-01-17T05:50:14.204Z,71.44
2019-01-17T05:52:46.993Z,70.51
2019-01-17T05:55:20.398Z,71.21
2019-01-17T05:57:53.991Z,69.69
2019-01-17T06:00:26.766Z,70.15
2019-01-17T06:03:00.413Z,69.65
2019-01-17T06:05:33.214Z,69.01
2019-01-17T06:08:06.031Z,69.48
2019-01-17T06:10:39.876Z,71.07
2019-01-17T06:13:12.982Z,71.17
2019-01-17T06:15:46.189Z,71.36
2019-01-17T06:18:19.015Z,70.93
2019-01-17T06:20:51.934Z,71.49
2019-01-17T06:23:27.770Z,71.08
2019-01-17T06:26:00.455Z,71.97
2019-01-17T06:28:33.167Z,71.23
2019-01-17T06:31:06.061Z,71.17
2019-01-17T06:33:38.808Z,71.38
2019-01-17T06:36:11.594Z,72.02
2019-01-17T06:38:44.293Z,71.98
2019-01-17T06:41:16.974Z,72.39
2019-01-17T06:43:51.128Z,72.83
2019-01-17T06:46:24.049Z,72.62
2019-01-17T06:48:56.822Z,73.49
2019-01-17T06:51:29.635Z,73.28
2019-01-17T06:54:02.274Z,73.53
2019-01-17T06:56:35.042Z,73.67
2019-01-17T06:59:07.809Z,73.35
2019-01-17T07:01:40.535Z,73.97
2019-01-17T07:04:13.333Z,74.21
2019-01-17T07:06:46.054Z,74.41
2019-01-17T07:09:18.837Z,75.01
2019-01-17T07:11:52.182Z,75.06
2019-01-17T07:14:25.018Z,75.42
2019-01-17T07:16:57.885Z,75.54
2019-01-17T07:19:30.681Z,76.04
2019-01-17T07:22:05.122Z,75.72
2019-01-17T07:24:38.085Z,75.84
2019-01-17T07:27:11.006Z,76.53
2019-01-17T07:29:43.753Z,76.12
2019-01-17T07:32:16.466Z,76.72
2019-01-17T07:34:49.653Z,76.14
2019-01-17T07:37:22.442Z,76.53
2019-01-17T07:39:55.283Z,77.88
2019-01-17T07:42:29.686Z,78.33
2019-01-17T07:45:02.559Z,78.62
2019-01-17T07:47:37.095Z,78.91
2019-01-17T07:50:11.019Z,79.34
2019-01-17T07:52:43.793Z,79.08
2019-01-17T07:55:16.540Z,79.48
2019-01-17T07:57:49.372Z,79.00
2019-01-17T08:00:23.781Z,79.42
2019-01-17T08:02:56.505Z,79.65
2019-01-17T08:05:29.401Z,79.71
2019-01-17T08:08:02.179Z,79.53
2019-01-17T08:10:35.052Z,79.78
2019-01-17T08:13:07.820Z,79.87
2019-01-17T08:15:40.719Z,79.28
2019-01-17T08:18:18.602Z,79.44
2019-01-17T08:20:47.870Z,79.10
2019-01-17T08:23:20.535Z,79.53
2019-01-17T08:25:54.333Z,79.27
2019-01-17T08:28:27.341Z,79.19
2019-01-17T08:31:00.186Z,79.53
2019-01-17T08:33:33.152Z,79.61
2019-01-17T08:36:06.041Z,79.56
2019-01-17T08:38:41.002Z,79.69
2019-01-17T08:41:13.767Z,79.89
2019-01-17T08:43:46.529Z,79.21
2019-01-17T08:46:19.270Z,77.51
2019-01-17T08:48:52.104Z,78.58
2019-01-17T08:51:24.875Z,78.41
2019-01-17T08:53:57.845Z,78.21
2019-01-17T08:56:30.847Z,78.27
2019-01-17T08:59:04.050Z,78.49
2019-01-17T09:01:38.186Z,77.75
2019-01-17T09:04:11.153Z,77.88
2019-01-17T09:06:43.951Z,77.00
2019-01-17T09:09:16.771Z,77.37
2019-01-17T09:11:49.647Z,76.93
2019-01-17T09:14:22.374Z,77.10
2019-01-17T09:16:55.246Z,76.98
2019-01-17T09:19:28.297Z,77.57
2019-01-17T09:22:01.824Z,77.90
2019-01-17T09:24:34.710Z,77.45
2019-01-17T09:27:08.004Z,77.38
2019-01-17T09:29:40.923Z,77.17
2019-01-17T09:32:13.708Z,76.17
2019-01-17T09:34:46.527Z,76.69
2019-01-17T09:37:19.286Z,76.76
2019-01-17T09:39:52.222Z,76.28
2019-01-17T09:42:25.220Z,76.62
2019-01-17T09:44:58.244Z,76.63
2019-01-17T09:47:31.072Z,76.25
2019-01-17T09:50:04.056Z,76.50
2019-01-17T09:52:37.942Z,76.51
2019-01-17T09:55:10.747Z,76.75
2019-01-17T09:57:44.590Z,76.00
2019-01-17T10:00:29.727Z,76.03
2019-01-17T10:03:02.718Z,76.17
2019-01-17T10:05:35.663Z,76.15
2019-01-17T10:08:08.750Z,76.45
2019-01-17T10:10:41.776Z,75.79
2019-01-17T10:13:14.660Z,75.80
2019-01-17T10:16:26.563Z,75.32
2019-01-17T10:19:56.769Z,75.11
2019-01-17T10:22:48.193Z,75.21
2019-01-17T10:26:27.377Z,75.02
2019-01-17T10:29:58.897Z,75.27
2019-01-17T10:33:28.887Z,74.58
2019-01-17T10:37:02.806Z,74.52
2019-01-17T10:40:27.186Z,74.53
2019-01-17T10:44:02.263Z,74.49
2019-01-17T10:48:00.082Z,73.84
2019-01-17T10:52:02.063Z,74.18
2019-01-17T10:55:18.073Z,74.27
2019-01-17T10:58:40.731Z,73.96
2019-01-17T11:01:42.340Z,74.70
2019-01-17T11:05:05.900Z,73.99
2019-01-17T11:08:35.475Z,73.44
2019-01-17T11:12:02.036Z,74.35
2019-01-17T11:14:51.190Z,74.07
2019-01-17T11:18:28.612Z,74.05
2019-01-17T11:21:49.711Z,73.76
2019-01-17T11:25:19.954Z,73.60
2019-01-17T11:28:48.281Z,73.96
2019-01-17T11:31:52.379Z,73.36
2019-01-17T11:35:43.555Z,73.62
2019-01-17T11:38:56.673Z,73.76
2019-01-17T11:42:24.097Z,73.56
2019-01-17T11:45:42.587Z,73.43
2019-01-17T11:49:17.030Z,73.74
2019-01-17T11:53:03.556Z,73.77
2019-01-17T11:56:11.210Z,72.95
2019-01-17T11:59:56.563Z,73.62
2019-01-17T12:03:33.169Z,73.06
2019-01-17T12:06:06.123Z,72.50
2019-01-17T12:08:39.322Z,72.59
2019-01-17T12:11:12.167Z,72.07
2019-01-17T12:13:45.162Z,71.74
2019-01-17T12:16:17.898Z,72.13
2019-01-17T12:18:50.830Z,71.04
2019-01-17T12:21:23.880Z,71.02
2019-01-17T12:23:56.769Z,71.29
2019-01-17T12:26:29.644Z,71.91
2019-01-17T12:29:02.460Z,72.43
2019-01-17T12:31:35.243Z,71.63
2019-01-17T12:34:08.197Z,72.20
2019-01-17T12:36:41.410Z,72.10
2019-01-17T12:39:15.188Z,71.97
2019-01-17T12:41:47.972Z,72.30
2019-01-17T12:44:20.779Z,71.94
2019-01-17T12:46:53.546Z,71.31
2019-01-17T12:49:26.655Z,71.43
2019-01-17T12:51:59.504Z,71.40
2019-01-17T12:54:32.223Z,71.24
2019-01-17T12:57:05.128Z,71.47
2019-01-17T12:59:37.884Z,70.83
2019-01-17T13:02:10.766Z,70.58
2019-01-17T13:04:43.785Z,70.56
2019-01-17T13:07:16.594Z,70.61
2019-01-17T13:09:49.302Z,71.67
2019-01-17T13:12:22.078Z,70.55
2019-01-17T13:14:54.971Z,69.76
2019-01-17T13:17:27.759Z,69.41
2019-01-17T13:20:00.590Z,70.21
2019-01-17T13:22:40.819Z,69.19
2019-01-17T13:25:17.714Z,67.67
2019-01-17T13:27:50.695Z,67.41
2019-01-17T13:30:24.907Z,67.82
2019-01-17T13:32:57.575Z,68.39
2019-01-17T13:35:30.321Z,68.91
2019-01-17T13:38:03.794Z,69.45
2019-01-17T13:40:36.601Z,69.27
2019-01-17T13:43:09.650Z,69.23
2019-01-17T13:45:42.534Z,69.83
2019-01-17T13:48:15.277Z,69.60
2019-01-17T13:50:49.988Z,69.88
2019-01-17T13:53:22.826Z,69.52
2019-01-17T13:55:55.694Z,69.18
2019-01-17T13:58:28.471Z,70.29
2019-01-17T14:01:01.330Z,70.28
2019-01-17T14:03:34.039Z,70.31
2019-01-17T14:06:07.610Z,70.36
2019-01-17T14:08:42.168Z,70.53
2019-01-17T14:11:14.948Z,69.70
2019-01-17T14:13:47.683Z,70.43
2019-01-17T14:16:20.434Z,70.78
2019-01-17T14:18:53.194Z,70.33
2019-01-17T14:21:26.001Z,70.38
2019-01-17T14:23:59.060Z,70.96
2019-01-17T14:26:35.004Z,71.14
2019-01-17T14:29:07.904Z,71.36
2019-01-17T14:31:40.786Z,70.61
2019-01-17T14:34:13.674Z,70.81
2019-01-17T14:36:46.541Z,70.84
2019-01-17T14:39:19.352Z,71.35
2019-01-17T14:41:52.366Z,71.44
2019-01-17T14:44:25.185Z,71.74
2019-01-17T14:46:58.522Z,71.55
2019-01-17T14:49:31.490Z,72.24
2019-01-17T14:52:04.441Z,71.24
2019-01-17T14:54:40.415Z,71.37
2019-01-17T14:57:13.377Z,71.69
2019-01-17T14:59:46.336Z,72.26
2019-01-17T15:02:19.287Z,71.45
2019-01-17T15:04:52.491Z,72.25
2019-01-17T15:07:28.657Z,71.38
2019-01-17T15:10:03.199Z,72.03
2019-01-17T15:12:36.527Z,71.76
2019-01-17T15:15:12.832Z,71.60
2019-01-17T15:17:45.666Z,71.65
2019-01-17T15:20:20.641Z,72.39
2019-01-17T15:22:57.223Z,70.90
2019-01-17T15:25:36.299Z,71.83
2019-01-17T15:28:11.287Z,71.60
2019-01-17T15:30:53.908Z,71.69
2019-01-17T15:33:31.874Z,71.53
2019-01-17T15:36:05.442Z,72.10
2019-01-17T15:38:41.271Z,72.85
2019-01-17T15:41:34.649Z,72.82
2019-01-17T15:44:12.305Z,71.96
2019-01-17T15:46:47.351Z,72.18
2019-01-17T15:49:39.821Z,72.80
2019-01-17T15:52:22.475Z,73.90
2019-01-17T15:55:18.457Z,72.95
2019-01-17T15:57:58.961Z,73.60
2019-01-17T16:01:02.473Z,73.68
2019-01-17T16:03:48.843Z,73.70
2019-01-17T16:06:23.401Z,73.30
2019-01-17T16:08:58.922Z,73.46
2019-01-17T16:11:31.779Z,74.30
2019-01-17T16:14:07.600Z,73.93
2019-01-17T16:17:07.308Z,74.16
2019-01-17T16:20:31.519Z,75.15
2019-01-17T16:22:54.008Z,75.03
2019-01-17T16:25:44.419Z,74.59
2019-01-17T16:28:34.627Z,76.18
2019-01-17T16:31:19.594Z,76.79
2019-01-17T16:37:22.307Z,77.18
2019-01-17T16:40:13.838Z,77.41
2019-01-17T16:43:00.505Z,78.12
2019-01-17T16:45:39.381Z,77.46
2019-01-17T16:48:20.422Z,78.83
2019-01-17T16:50:55.424Z,78.53
2019-01-17T16:53:34.687Z,78.97
2019-01-17T16:56:12.234Z,79.03
2019-01-17T16:58:48.569Z,79.29
2019-01-17T17:01:23.031Z,79.50
2019-01-17T17:03:58.821Z,79.76
2019-01-17T17:07:14.736Z,80.07
2019-01-17T17:09:50.791Z,80.52
2019-01-17T17:12:23.706Z,80.50
2019-01-17T17:14:58.353Z,80.83
2019-01-17T17:17:37.367Z,81.47
2019-01-17T17:20:17.660Z,81.69
2019-01-17T17:22:54.378Z,82.12
2019-01-17T17:25:47.139Z,82.00
2019-01-17T17:28:28.664Z,82.32
2019-01-17T17:31:05.740Z,82.52
2019-01-17T17:33:40.535Z,82.39
2019-01-17T17:36:13.408Z,82.36
2019-01-17T17:38:54.267Z,82.39
2019-01-17T17:41:28.986Z,82.62
2019-01-17T17:44:02.271Z,82.31
2019-01-17T17:46:38.577Z,82.45
2019-01-17T17:49:11.516Z,82.31
2019-01-17T17:51:45.559Z,81.69
2019-01-17T17:54:25.485Z,82.20
2019-01-17T17:57:04.993Z,81.88
2019-01-17T17:59:43.202Z,82.12
2019-01-17T18:02:25.254Z,82.49
2019-01-17T18:05:05.589Z,81.72
2019-01-17T18:07:45.240Z,82.26
2019-01-17T18:10:21.302Z,82.39
2019-01-17T18:13:48.150Z,82.05
2019-01-17T18:16:24.227Z,82.03
2019-01-17T18:18:57.395Z,81.89
2019-01-17T18:21:36.786Z,82.06
2019-01-17T18:24:13.279Z,82.14
2019-01-17T18:26:46.339Z,82.62
2019-01-17T18:29:19.111Z,82.65
2019-01-17T18:31:52.007Z,83.15
2019-01-17T18:34:24.916Z,82.94
2019-01-17T18:36:57.905Z,82.83
2019-01-17T18:39:33.801Z,82.24
2019-01-17T18:42:06.684Z,82.06
2019-01-17T18:44:39.561Z,81.58
2019-01-17T18:47:12.419Z,81.99
2019-01-17T18:49:45.144Z,81.52
2019-01-17T18:52:18.038Z,81.20
2019-01-17T18:54:50.866Z,81.32
2019-01-17T18:57:24.017Z,81.57
2019-01-17T18:59:56.862Z,80.85
2019-01-17T19:02:29.790Z,80.43
2019-01-17T19:05:02.668Z,80.99
2019-01-17T19:07:35.500Z,81.67
2019-01-17T19:10:09.615Z,80.97
2019-01-17T19:12:42.454Z,81.33
2019-01-17T19:15:27.047Z,82.43
2019-01-17T19:17:59.911Z,82.30
2019-01-17T19:20:32.887Z,82.24
2019-01-17T19:23:06.016Z,81.67
2019-01-17T19:25:41.499Z,81.04
2019-01-17T19:28:14.613Z,80.97
2019-01-17T19:30:47.333Z,80.18
2019-01-17T19:33:20.217Z,80.83
2019-01-17T19:35:56.362Z,81.07
2019-01-17T19:38:30.126Z,81.76
2019-01-17T19:41:02.937Z,82.58
2019-01-17T19:43:35.833Z,82.62
2019-01-17T19:46:08.672Z,83.59
2019-01-17T19:48:41.761Z,82.87
2019-01-17T19:51:14.578Z,82.77
2019-01-17T19:53:47.354Z,82.68
2019-01-17T19:56:20.102Z,82.24
2019-01-17T19:58:52.913Z,82.66
2019-01-17T20:01:25.714Z,82.30
2019-01-17T20:03:58.646Z,82.08
2019-01-17T20:06:31.446Z,82.43
2019-01-17T20:09:06.803Z,82.15
2019-01-17T20:11:39.810Z,82.41
2019-01-17T20:14:12.745Z,82.11
2019-01-17T20:16:45.651Z,82.35
2019-01-17T20:19:18.412Z,82.21
2019-01-17T20:21:51.255Z,82.81
2019-01-17T20:24:23.981Z,82.31
2019-01-17T20:26:56.697Z,82.54
2019-01-17T20:29:29.530Z,82.98
2019-01-17T20:32:02.308Z,82.81
2019-01-17T20:34:35.369Z,82.34
2019-01-17T20:37:08.179Z,82.71
2019-01-17T20:39:41.054Z,82.26
2019-01-17T20:42:14.073Z,82.27
2019-01-17T20:44:46.837Z,82.69
2019-01-17T20:47:19.645Z,82.41
2019-01-17T20:49:52.496Z,82.68
2019-01-17T20:52:25.183Z,82.80
2019-01-17T20:54:58.010Z,81.57
2019-01-17T20:57:30.912Z,82.14
2019-01-17T21:00:03.726Z,82.58
2019-01-17T21:02:36.474Z,82.72
2019-01-17T21:05:09.619Z,82.38
2019-01-17T21:07:42.386Z,82.45
2019-01-17T21:10:15.978Z,81.54
2019-01-17T21:12:48.706Z,81.24
2019-01-17T21:15:22.297Z,80.52
2019-01-17T21:17:55.035Z,81.04
2019-01-17T21:20:27.810Z,80.72
2019-01-17T21:23:00.768Z,80.75
2019-01-17T21:25:33.563Z,81.18
2019-01-17T21:28:06.461Z,81.12
2019-01-17T21:30:41.237Z,81.14
2019-01-17T21:33:14.235Z,80.78
2019-01-17T21:35:47.027Z,80.11
2019-01-17T21:38:20.533Z,79.66
2019-01-17T21:40:53.380Z,79.56
2019-01-17T21:43:27.793Z,78.88
2019-01-17T21:46:00.535Z,78.96
2019-01-17T21:48:33.336Z,78.75
2019-01-17T21:51:06.103Z,78.00
2019-01-17T21:53:39.115Z,77.38
2019-01-17T21:56:31.800Z,77.30
2019-01-17T21:59:06.172Z,77.37
2019-01-17T22:01:38.924Z,77.63
2019-01-17T22:04:11.810Z,77.72
2019-01-17T22:06:54.936Z,77.52
2019-01-17T22:09:28.001Z,77.27
2019-01-17T22:12:01.050Z,77.36
2019-01-17T22:14:34.028Z,77.60
2019-01-17T22:17:12.515Z,77.52
2019-01-17T22:19:46.087Z,78.57
2019-01-17T22:22:18.813Z,78.30
2019-01-17T22:24:51.841Z,78.81
2019-01-17T22:27:24.694Z,79.52
2019-01-17T22:29:57.722Z,80.27
2019-01-17T22:32:30.613Z,80.17
2019-01-17T22:35:12.236Z,79.92
2019-01-17T22:37:45.177Z,78.43
2019-01-17T22:40:17.982Z,78.36
2019-01-17T22:42:50.691Z,78.60
2019-01-17T22:45:29.817Z,78.96
2019-01-17T22:48:02.501Z,78.53
2019-01-17T22:50:35.175Z,78.91
2019-01-17T22:53:08.357Z,78.62
2019-01-17T22:55:41.083Z,78.22
2019-01-17T22:58:13.772Z,78.36
2019-01-17T23:01:06.740Z,78.39
2019-01-17T23:03:45.712Z,79.08
2019-01-17T23:06:18.392Z,79.26
2019-01-17T23:08:51.125Z,79.58
2019-01-17T23:11:29.486Z,78.56
2019-01-17T23:13:58.269Z,79.09
2019-01-17T23:16:30.943Z,79.40
2019-01-17T23:19:03.820Z,79.22
2019-01-17T23:21:36.794Z,78.93
2019-01-17T23:24:09.471Z,78.64
2019-01-17T23:26:43.432Z,79.21
2019-01-17T23:29:16.259Z,79.98
2019-01-17T23:31:48.883Z,80.04
2019-01-17T23:34:21.553Z,80.69
2019-01-17T23:36:54.314Z,80.83
2019-01-17T23:39:26.999Z,80.42
2019-01-17T23:41:59.726Z,81.32
2019-01-17T23:44:32.399Z,81.27
2019-01-17T23:47:06.540Z,82.80
2019-01-17T23:49:39.441Z,83.70
2019-01-17T23:52:12.181Z,82.75
2019-01-17T23:54:44.870Z,82.46
2019-01-17T23:57:17.556Z,82.68
2019-01-17T23:59:50.296Z,81.95
